createdAt,value
2019-02-14T00:00:02.925Z,7.33
2019-02-14T00:05:01.992Z,7.73
2019-02-14T00:09:59.771Z,6.87
2019-02-14T00:14:56.875Z,7.00
2019-02-14T00:19:57.182Z,7.03
2019-02-14T00:24:55.821Z,7.70
2019-02-14T00:29:57.777Z,7.90
2019-02-14T00:35:08.770Z,7.67
2019-02-14T00:40:23.142Z,7.57
2019-02-14T00:45:32.184Z,7.23
2019-02-14T00:50:39.295Z,7.67
2019-02-14T00:55:41.168Z,7.20
2019-02-14T01:00:39.469Z,7.33
2019-02-14T01:05:38.183Z,7.57
2019-02-14T01:10:34.230Z,8.30
2019-02-14T01:15:35.393Z,7.83
2019-02-14T01:20:43.611Z,8.43
2019-02-14T01:25:36.946Z,7.83
2019-02-14T01:30:48.162Z,8.53
2019-02-14T01:35:59.011Z,8.13
2019-02-14T01:41:02.781Z,7.27
2019-02-14T01:46:02.750Z,7.97
2019-02-14T01:51:04.445Z,7.40
2019-02-14T01:56:16.345Z,8.10
2019-02-14T02:01:27.376Z,9.70
2019-02-14T02:06:34.528Z,7.97
2019-02-14T02:11:36.373Z,9.17
2019-02-14T02:16:45.483Z,10.33
2019-02-14T02:21:49.277Z,10.17
2019-02-14T02:26:53.844Z,10.07
2019-02-14T02:32:02.329Z,14.83
2019-02-14T02:44:03.093Z,9.30
2019-02-14T02:49:07.217Z,9.60
2019-02-14T02:54:14.257Z,10.47
2019-02-14T02:59:14.308Z,10.57
2019-02-14T03:04:17.983Z,11.50
2019-02-14T03:09:19.507Z,11.07
2019-02-14T03:14:23.102Z,10.67
2019-02-14T03:19:29.694Z,11.63
2019-02-14T03:24:37.180Z,9.70
2019-02-14T03:29:41.373Z,10.83
2019-02-14T03:34:49.099Z,10.53
2019-02-14T03:40:06.679Z,9.90
2019-02-14T03:45:20.225Z,8.93
2019-02-14T03:50:21.870Z,9.43
2019-02-14T03:55:24.074Z,10.03
2019-02-14T04:00:32.448Z,9.70
2019-02-14T04:05:43.948Z,10.10
2019-02-14T04:16:08.582Z,9.10
2019-02-14T04:21:16.172Z,8.83
2019-02-14T04:26:28.686Z,9.70
2019-02-14T04:32:04.465Z,8.23
2019-02-14T04:37:17.880Z,8.67
2019-02-14T04:42:25.114Z,9.23
2019-02-14T04:47:53.099Z,9.00
2019-02-14T04:53:15.882Z,8.70
2019-02-14T05:03:56.902Z,9.10
2019-02-14T05:09:13.559Z,9.80
2019-02-14T05:14:32.644Z,10.20
2019-02-14T05:19:53.621Z,9.57
2019-02-14T05:30:52.959Z,9.73
2019-02-14T05:36:00.078Z,9.80
2019-02-14T05:41:11.902Z,10.73
2019-02-14T05:46:18.116Z,10.20
2019-02-14T05:51:30.752Z,10.20
2019-02-14T05:56:42.384Z,10.93
2019-02-14T06:02:21.533Z,10.43
2019-02-14T06:07:28.195Z,10.50
2019-02-14T06:12:38.224Z,10.57
2019-02-14T06:17:55.920Z,10.83
2019-02-14T06:23:22.477Z,10.63
2019-02-14T06:34:46.471Z,10.27
2019-02-14T06:39:42.370Z,10.93
2019-02-14T06:44:47.217Z,10.13
2019-02-14T06:49:50.696Z,10.10
2019-02-14T06:54:56.792Z,10.30
2019-02-14T07:00:23.117Z,10.90
2019-02-14T07:05:26.304Z,10.17
2019-02-14T07:10:39.956Z,10.07
2019-02-14T07:15:49.289Z,10.77
2019-02-14T07:20:53.950Z,9.80
2019-02-14T07:26:04.166Z,9.00
2019-02-14T07:31:20.259Z,10.00
2019-02-14T07:36:25.394Z,11.23
2019-02-14T07:41:29.330Z,10.67
2019-02-14T07:46:59.808Z,10.53
2019-02-14T07:52:06.387Z,10.33
2019-02-14T07:57:11.173Z,10.50
2019-02-14T08:02:29.507Z,11.10
2019-02-14T08:07:23.478Z,10.30
2019-02-14T08:55:12.525Z,10.43
2019-02-14T09:00:15.246Z,11.23
2019-02-14T09:05:16.809Z,11.60
2019-02-14T09:10:18.448Z,10.73
2019-02-14T09:15:20.418Z,12.07
2019-02-14T09:20:25.993Z,12.53
2019-02-14T09:25:25.411Z,11.80
2019-02-14T09:30:21.502Z,12.13
2019-02-14T09:35:17.431Z,12.00
2019-02-14T09:40:14.008Z,11.40
2019-02-14T09:45:11.397Z,11.63
2019-02-14T09:50:09.382Z,12.37
2019-02-14T09:55:05.759Z,13.13
2019-02-14T10:00:01.836Z,12.37
2019-02-14T10:04:58.211Z,13.80
2019-02-14T10:09:54.115Z,13.87
2019-02-14T10:14:50.281Z,14.00
2019-02-14T10:19:48.211Z,13.03
2019-02-14T10:24:44.124Z,15.10
2019-02-14T10:29:40.485Z,14.70
2019-02-14T10:34:36.535Z,15.93
2019-02-14T10:39:34.587Z,15.80
2019-02-14T10:44:30.537Z,15.77
2019-02-14T10:49:27.164Z,16.03
2019-02-14T10:54:23.034Z,17.10
2019-02-14T10:59:18.921Z,16.10
2019-02-14T11:04:14.839Z,16.93
2019-02-14T11:09:10.860Z,17.50
2019-02-14T11:14:07.237Z,17.33
2019-02-14T11:19:03.121Z,17.17
2019-02-14T11:23:59.200Z,17.17
2019-02-14T11:28:55.059Z,18.67
2019-02-14T11:33:50.910Z,17.60
2019-02-14T11:38:46.840Z,17.03
2019-02-14T11:43:42.772Z,18.87
2019-02-14T11:48:38.776Z,17.80
2019-02-14T11:53:34.809Z,18.47
2019-02-14T11:58:30.719Z,19.00
2019-02-14T12:03:27.788Z,18.63
2019-02-14T12:08:23.662Z,17.40
2019-02-14T12:13:19.661Z,18.43
2019-02-14T12:18:18.491Z,18.77
2019-02-14T12:23:16.460Z,18.17
2019-02-14T12:28:18.305Z,18.93
2019-02-14T12:33:16.443Z,19.43
2019-02-14T12:38:15.270Z,18.57
2019-02-14T12:43:11.123Z,18.70
2019-02-14T12:48:08.501Z,19.10
2019-02-14T12:53:04.763Z,18.77
2019-02-14T12:58:00.871Z,19.33
2019-02-14T13:02:56.695Z,19.57
2019-02-14T13:07:54.631Z,19.20
2019-02-14T13:12:53.363Z,18.37
2019-02-14T13:17:49.478Z,17.53
2019-02-14T13:22:45.425Z,18.33
2019-02-14T13:27:41.321Z,17.53
2019-02-14T13:32:37.556Z,17.40
2019-02-14T13:37:33.512Z,17.83
2019-02-14T13:42:29.685Z,16.20
2019-02-14T13:47:27.163Z,18.30
2019-02-14T13:52:23.184Z,18.33
2019-02-14T13:57:19.446Z,17.67
2019-02-14T14:02:15.373Z,17.27
2019-02-14T14:07:11.237Z,17.03
2019-02-14T14:12:07.341Z,15.90
2019-02-14T14:17:03.282Z,16.40
2019-02-14T14:21:59.263Z,17.50
2019-02-14T14:26:55.191Z,16.23
2019-02-14T14:31:51.253Z,15.90
2019-02-14T14:36:47.194Z,14.83
2019-02-14T14:41:43.003Z,13.13
2019-02-14T14:47:06.825Z,13.47
2019-02-14T14:52:02.851Z,14.00
2019-02-14T14:56:58.904Z,16.63
2019-02-14T15:01:54.909Z,16.80
2019-02-14T15:06:50.914Z,18.30
2019-02-14T15:11:46.752Z,18.33
2019-02-14T15:16:42.948Z,18.47
2019-02-14T15:21:38.880Z,17.63
2019-02-14T15:26:34.785Z,17.57
2019-02-14T15:31:32.055Z,17.97
2019-02-14T15:36:29.547Z,17.53
2019-02-14T15:41:25.299Z,16.70
2019-02-14T15:46:21.114Z,17.13
2019-02-14T15:51:18.322Z,16.67
2019-02-14T15:56:14.757Z,18.43
2019-02-14T16:01:13.743Z,17.27
2019-02-14T16:06:09.948Z,16.10
2019-02-14T16:11:10.171Z,15.77
2019-02-14T16:16:06.166Z,16.90
2019-02-14T16:21:03.642Z,17.97
2019-02-14T16:25:59.783Z,17.10
2019-02-14T16:30:56.901Z,17.43
2019-02-14T16:35:52.846Z,17.07
2019-02-14T16:40:53.059Z,16.77
2019-02-14T16:45:49.046Z,17.57
2019-02-14T16:50:44.936Z,16.70
2019-02-14T16:55:40.806Z,16.90
2019-02-14T17:00:36.882Z,15.77
2019-02-14T17:05:36.951Z,16.97
2019-02-14T17:10:37.065Z,17.50
2019-02-14T17:15:30.352Z,16.83
2019-02-14T17:20:26.281Z,18.20
2019-02-14T17:25:23.681Z,17.90
2019-02-14T17:35:50.941Z,17.27
2019-02-14T17:40:47.453Z,16.83
2019-02-14T17:50:57.168Z,17.33
2019-02-14T17:55:53.006Z,17.73
2019-02-14T18:00:48.903Z,16.97
2019-02-14T18:05:46.384Z,16.70
2019-02-14T18:10:42.490Z,17.10
2019-02-14T18:15:41.272Z,17.37
2019-02-14T18:21:04.100Z,17.73
2019-02-14T18:26:00.059Z,16.93
2019-02-14T18:30:56.024Z,16.93
2019-02-14T18:35:51.939Z,15.80
2019-02-14T18:40:48.578Z,13.60
2019-02-14T18:45:44.582Z,14.60
2019-02-14T18:50:40.705Z,14.70
2019-02-14T18:55:36.855Z,13.97
2019-02-14T19:00:33.035Z,14.50
2019-02-14T19:05:29.133Z,20.20
2019-02-14T19:10:25.254Z,15.03
2019-02-14T19:15:23.092Z,12.57
2019-02-14T19:20:19.011Z,11.63
2019-02-14T19:25:19.355Z,11.10
2019-02-14T19:30:16.139Z,11.17
2019-02-14T19:35:25.149Z,13.30
2019-02-14T19:40:21.233Z,15.30
2019-02-14T19:45:17.288Z,13.73
2019-02-14T19:50:16.613Z,14.27
2019-02-14T19:56:19.581Z,15.63
2019-02-14T20:01:12.890Z,15.17
2019-02-14T20:06:10.811Z,14.90
2019-02-14T20:11:09.854Z,17.00
2019-02-14T20:16:05.851Z,17.00
2019-02-14T20:21:02.958Z,16.20
2019-02-14T20:26:01.699Z,15.60
2019-02-14T20:31:00.291Z,17.37
2019-02-14T20:35:56.370Z,17.77
2019-02-14T20:40:54.435Z,17.73
2019-02-14T20:45:50.588Z,15.27
2019-02-14T20:50:48.201Z,14.40
2019-02-14T20:55:45.137Z,13.97
2019-02-14T21:00:41.296Z,13.80
2019-02-14T21:05:37.334Z,14.53
2019-02-14T21:10:36.551Z,14.23
2019-02-14T21:15:32.633Z,12.90
2019-02-14T21:20:28.756Z,13.27
2019-02-14T21:25:24.668Z,12.70
2019-02-14T21:30:26.845Z,12.97
2019-02-14T21:35:35.078Z,13.37
2019-02-14T21:40:53.251Z,13.20
2019-02-14T21:45:51.324Z,14.23
2019-02-14T21:50:53.481Z,13.30
2019-02-14T21:55:49.323Z,13.13
2019-02-14T22:00:45.492Z,12.40
2019-02-14T22:05:41.584Z,13.73
2019-02-14T22:10:37.783Z,14.27
2019-02-14T22:15:33.759Z,12.93
2019-02-14T22:20:29.663Z,13.17
2019-02-14T22:25:25.486Z,13.73
2019-02-14T22:30:21.627Z,13.13
2019-02-14T22:35:20.664Z,13.90
2019-02-14T22:40:16.799Z,13.30
2019-02-14T22:45:15.918Z,13.57
2019-02-14T22:50:14.857Z,14.33
2019-02-14T22:55:11.153Z,15.63
2019-02-14T23:00:31.336Z,15.40
2019-02-14T23:05:33.525Z,14.37
2019-02-14T23:10:39.116Z,15.33
2019-02-14T23:15:39.946Z,15.13
2019-02-14T23:20:47.930Z,14.20
2019-02-14T23:25:50.870Z,14.27
2019-02-14T23:30:51.300Z,13.73
2019-02-14T23:35:51.276Z,15.83
2019-02-14T23:40:50.352Z,15.57
2019-02-14T23:45:50.723Z,14.77
2019-02-14T23:50:51.831Z,16.33
2019-02-14T23:55:47.854Z,15.53
